sensor_id;sensor_type;location;lat;lon;timestamp;pressure;altitude;pressure_sealevel;temperature;humidity
63088;BME280;49173;43.164;27.786;2023-06-22T00:02:14;100666.06;;;21.78;79.46
63088;BME280;49173;43.164;27.786;2023-06-22T00:04:40;100667.78;;;21.79;79.78
63088;BME280;49173;43.164;27.786;2023-06-22T00:07:06;100678.13;;;21.76;79.83
63088;BME280;49173;43.164;27.786;2023-06-22T00:09:31;100670.09;;;21.74;79.95
63088;BME280;49173;43.164;27.786;2023-06-22T00:11:58;100676.72;;;21.72;79.98
63088;BME280;49173;43.164;27.786;2023-06-22T00:14:23;100669.81;;;21.67;79.99
63088;BME280;49173;43.164;27.786;2023-06-22T00:16:49;100664.66;;;21.64;79.78
63088;BME280;49173;43.164;27.786;2023-06-22T00:19:21;100675.72;;;21.63;80.02
63088;BME280;49173;43.164;27.786;2023-06-22T00:21:48;100680.31;;;21.62;80.00
63088;BME280;49173;43.164;27.786;2023-06-22T00:24:21;100680.47;;;21.61;80.14
63088;BME280;49173;43.164;27.786;2023-06-22T00:26:50;100682.34;;;21.60;80.36
63088;BME280;49173;43.164;27.786;2023-06-22T00:29:16;100685.66;;;21.54;80.16
63088;BME280;49173;43.164;27.786;2023-06-22T00:31:44;100688.38;;;21.54;80.25
63088;BME280;49173;43.164;27.786;2023-06-22T00:34:09;100682.22;;;21.52;80.34
63088;BME280;49173;43.164;27.786;2023-06-22T00:36:36;100686.50;;;21.55;80.39
63088;BME280;49173;43.164;27.786;2023-06-22T00:39:02;100685.97;;;21.51;80.27
63088;BME280;49173;43.164;27.786;2023-06-22T00:41:28;100697.47;;;21.45;80.38
63088;BME280;49173;43.164;27.786;2023-06-22T00:43:54;100694.03;;;21.43;80.66
63088;BME280;49173;43.164;27.786;2023-06-22T00:46:21;100686.13;;;21.40;80.71
63088;BME280;49173;43.164;27.786;2023-06-22T00:48:48;100691.31;;;21.43;81.05
63088;BME280;49173;43.164;27.786;2023-06-22T00:51:14;100696.88;;;21.42;80.89
63088;BME280;49173;43.164;27.786;2023-06-22T00:53:41;100695.16;;;21.41;80.86
63088;BME280;49173;43.164;27.786;2023-06-22T00:56:08;100700.06;;;21.37;81.12
63088;BME280;49173;43.164;27.786;2023-06-22T00:58:36;100694.03;;;21.33;81.13
63088;BME280;49173;43.164;27.786;2023-06-22T01:01:02;100690.28;;;21.34;80.87
63088;BME280;49173;43.164;27.786;2023-06-22T01:03:28;100697.63;;;21.34;81.33
63088;BME280;49173;43.164;27.786;2023-06-22T01:05:58;100701.22;;;21.34;81.33
63088;BME280;49173;43.164;27.786;2023-06-22T01:08:40;100698.06;;;21.29;80.86
63088;BME280;49173;43.164;27.786;2023-06-22T01:11:14;100697.31;;;21.27;80.96
63088;BME280;49173;43.164;27.786;2023-06-22T01:13:47;100692.63;;;21.29;81.04
63088;BME280;49173;43.164;27.786;2023-06-22T01:16:36;100688.25;;;21.27;81.07
63088;BME280;49173;43.164;27.786;2023-06-22T01:22:00;100685.41;;;21.19;81.48
63088;BME280;49173;43.164;27.786;2023-06-22T01:24:48;100685.97;;;21.12;81.38
63088;BME280;49173;43.164;27.786;2023-06-22T01:29:59;100689.41;;;21.05;81.72
63088;BME280;49173;43.164;27.786;2023-06-22T01:32:30;100688.00;;;21.01;81.66
63088;BME280;49173;43.164;27.786;2023-06-22T01:34:58;100685.13;;;21.02;81.76
63088;BME280;49173;43.164;27.786;2023-06-22T01:37:27;100686.13;;;21.01;82.13
63088;BME280;49173;43.164;27.786;2023-06-22T01:39:54;100683.41;;;21.01;81.78
63088;BME280;49173;43.164;27.786;2023-06-22T01:42:22;100689.72;;;21.02;81.65
63088;BME280;49173;43.164;27.786;2023-06-22T01:44:49;100685.81;;;21.04;81.75
63088;BME280;49173;43.164;27.786;2023-06-22T01:47:15;100691.72;;;21.00;81.28
63088;BME280;49173;43.164;27.786;2023-06-22T01:49:41;100681.94;;;20.97;81.82
63088;BME280;49173;43.164;27.786;2023-06-22T01:52:07;100687.41;;;20.97;81.63
63088;BME280;49173;43.164;27.786;2023-06-22T01:54:33;100689.59;;;20.94;82.10
63088;BME280;49173;43.164;27.786;2023-06-22T01:57:00;100698.75;;;20.93;81.79
63088;BME280;49173;43.164;27.786;2023-06-22T01:59:29;100698.75;;;20.93;81.57
63088;BME280;49173;43.164;27.786;2023-06-22T02:02:02;100692.16;;;20.95;81.04
63088;BME280;49173;43.164;27.786;2023-06-22T02:04:51;100695.59;;;20.97;81.43
63088;BME280;49173;43.164;27.786;2023-06-22T02:07:20;100706.38;;;20.99;81.14
63088;BME280;49173;43.164;27.786;2023-06-22T02:09:50;100702.91;;;20.97;81.07
63088;BME280;49173;43.164;27.786;2023-06-22T02:12:20;100695.44;;;20.99;80.47
63088;BME280;49173;43.164;27.786;2023-06-22T02:14:47;100694.44;;;21.00;80.24
63088;BME280;49173;43.164;27.786;2023-06-22T02:17:14;100697.16;;;21.00;80.40
63088;BME280;49173;43.164;27.786;2023-06-22T02:19:42;100703.78;;;20.97;80.44
63088;BME280;49173;43.164;27.786;2023-06-22T02:22:08;100701.63;;;20.91;81.13
63088;BME280;49173;43.164;27.786;2023-06-22T02:24:34;100704.34;;;20.81;81.53
63088;BME280;49173;43.164;27.786;2023-06-22T02:27:01;100700.03;;;20.79;81.43
63088;BME280;49173;43.164;27.786;2023-06-22T02:29:27;100703.50;;;20.81;81.33
63088;BME280;49173;43.164;27.786;2023-06-22T02:31:54;100705.22;;;20.82;81.03
63088;BME280;49173;43.164;27.786;2023-06-22T02:34:21;100709.97;;;20.80;81.02
63088;BME280;49173;43.164;27.786;2023-06-22T02:36:48;100704.50;;;20.80;81.08
63088;BME280;49173;43.164;27.786;2023-06-22T02:39:20;100702.03;;;20.77;81.08
63088;BME280;49173;43.164;27.786;2023-06-22T02:41:52;100714.66;;;20.78;81.29
63088;BME280;49173;43.164;27.786;2023-06-22T02:44:19;100723.59;;;20.80;81.11
63088;BME280;49173;43.164;27.786;2023-06-22T02:46:46;100721.84;;;20.79;81.08
63088;BME280;49173;43.164;27.786;2023-06-22T02:49:12;100727.31;;;20.79;81.26
63088;BME280;49173;43.164;27.786;2023-06-22T02:51:44;100726.59;;;20.77;81.20
63088;BME280;49173;43.164;27.786;2023-06-22T02:54:10;100731.19;;;20.76;81.02
63088;BME280;49173;43.164;27.786;2023-06-22T02:56:36;100733.78;;;20.78;81.20
63088;BME280;49173;43.164;27.786;2023-06-22T02:59:02;100726.59;;;20.77;80.71
63088;BME280;49173;43.164;27.786;2023-06-22T03:01:29;100732.03;;;20.77;81.21
63088;BME280;49173;43.164;27.786;2023-06-22T03:03:56;100732.34;;;20.74;81.71
63088;BME280;49173;43.164;27.786;2023-06-22T03:08:39;100727.91;;;20.73;82.00
63088;BME280;49173;43.164;27.786;2023-06-22T03:11:05;100731.03;;;20.78;82.24
63088;BME280;49173;43.164;27.786;2023-06-22T03:13:30;100729.06;;;20.80;82.13
63088;BME280;49173;43.164;27.786;2023-06-22T03:15:56;100728.03;;;20.81;82.85
63088;BME280;49173;43.164;27.786;2023-06-22T03:18:22;100717.69;;;20.84;83.01
63088;BME280;49173;43.164;27.786;2023-06-22T03:20:48;100721.59;;;20.82;83.32
63088;BME280;49173;43.164;27.786;2023-06-22T03:23:13;100723.03;;;20.86;83.58
63088;BME280;49173;43.164;27.786;2023-06-22T03:25:40;100728.75;;;20.93;83.66
63088;BME280;49173;43.164;27.786;2023-06-22T03:28:06;100733.25;;;20.94;83.34
63088;BME280;49173;43.164;27.786;2023-06-22T03:30:32;100742.13;;;20.96;83.47
63088;BME280;49173;43.164;27.786;2023-06-22T03:32:58;100742.28;;;21.04;83.63
63088;BME280;49173;43.164;27.786;2023-06-22T03:35:23;100740.41;;;21.04;83.90
63088;BME280;49173;43.164;27.786;2023-06-22T03:37:49;100744.72;;;21.07;83.87
63088;BME280;49173;43.164;27.786;2023-06-22T03:40:15;100745.31;;;21.10;84.01
63088;BME280;49173;43.164;27.786;2023-06-22T03:42:40;100742.88;;;21.17;83.86
63088;BME280;49173;43.164;27.786;2023-06-22T03:45:07;100737.97;;;21.21;83.94
63088;BME280;49173;43.164;27.786;2023-06-22T03:47:33;100739.56;;;21.23;83.70
63088;BME280;49173;43.164;27.786;2023-06-22T03:49:59;100742.63;;;21.30;83.92
63088;BME280;49173;43.164;27.786;2023-06-22T03:52:25;100743.91;;;21.35;84.44
63088;BME280;49173;43.164;27.786;2023-06-22T03:54:51;100750.78;;;21.39;83.47
63088;BME280;49173;43.164;27.786;2023-06-22T03:57:16;100756.53;;;21.46;82.86
63088;BME280;49173;43.164;27.786;2023-06-22T03:59:42;100749.50;;;21.53;82.40
63088;BME280;49173;43.164;27.786;2023-06-22T04:02:08;100755.78;;;21.63;83.40
63088;BME280;49173;43.164;27.786;2023-06-22T04:04:34;100758.53;;;21.73;82.96
63088;BME280;49173;43.164;27.786;2023-06-22T04:07:00;100754.91;;;21.82;83.20
63088;BME280;49173;43.164;27.786;2023-06-22T04:09:27;100756.75;;;21.91;82.44
63088;BME280;49173;43.164;27.786;2023-06-22T04:11:53;100755.28;;;21.97;81.30
63088;BME280;49173;43.164;27.786;2023-06-22T04:14:19;100759.47;;;22.01;81.57
63088;BME280;49173;43.164;27.786;2023-06-22T04:16:44;100767.19;;;22.06;82.61
63088;BME280;49173;43.164;27.786;2023-06-22T04:19:10;100764.34;;;22.07;82.65
63088;BME280;49173;43.164;27.786;2023-06-22T04:21:42;100767.94;;;22.08;82.50
63088;BME280;49173;43.164;27.786;2023-06-22T04:24:08;100772.25;;;22.10;81.43
63088;BME280;49173;43.164;27.786;2023-06-22T04:26:34;100778.28;;;22.04;81.46
63088;BME280;49173;43.164;27.786;2023-06-22T04:29:05;100772.28;;;22.01;80.97
63088;BME280;49173;43.164;27.786;2023-06-22T04:31:32;100776.16;;;21.98;81.14
63088;BME280;49173;43.164;27.786;2023-06-22T04:34:03;100774.41;;;21.97;82.48
63088;BME280;49173;43.164;27.786;2023-06-22T04:36:39;100787.94;;;21.99;83.43
63088;BME280;49173;43.164;27.786;2023-06-22T04:39:07;100772.53;;;21.98;83.78
63088;BME280;49173;43.164;27.786;2023-06-22T04:41:36;100768.09;;;21.97;82.51
63088;BME280;49173;43.164;27.786;2023-06-22T04:44:12;100774.28;;;21.99;83.71
63088;BME280;49173;43.164;27.786;2023-06-22T04:46:39;100779.63;;;22.00;84.14
63088;BME280;49173;43.164;27.786;2023-06-22T04:49:09;100777.59;;;22.02;84.13
63088;BME280;49173;43.164;27.786;2023-06-22T04:51:44;100783.75;;;22.04;83.11
63088;BME280;49173;43.164;27.786;2023-06-22T04:54:10;100787.22;;;22.06;83.26
63088;BME280;49173;43.164;27.786;2023-06-22T04:56:35;100787.66;;;22.11;84.04
63088;BME280;49173;43.164;27.786;2023-06-22T04:59:02;100785.34;;;22.16;82.28
63088;BME280;49173;43.164;27.786;2023-06-22T05:01:29;100778.56;;;22.20;81.72
63088;BME280;49173;43.164;27.786;2023-06-22T05:03:56;100788.03;;;22.26;80.46
63088;BME280;49173;43.164;27.786;2023-06-22T05:06:23;100788.16;;;22.34;80.40
63088;BME280;49173;43.164;27.786;2023-06-22T05:08:56;100784.09;;;22.38;80.94
63088;BME280;49173;43.164;27.786;2023-06-22T05:11:28;100789.41;;;22.50;81.12
63088;BME280;49173;43.164;27.786;2023-06-22T05:13:54;100790.34;;;22.58;81.26
63088;BME280;49173;43.164;27.786;2023-06-22T05:16:21;100780.84;;;22.62;80.88
63088;BME280;49173;43.164;27.786;2023-06-22T05:18:53;100791.03;;;22.70;80.86
63088;BME280;49173;43.164;27.786;2023-06-22T05:21:24;100786.97;;;22.74;79.21
63088;BME280;49173;43.164;27.786;2023-06-22T05:23:51;100796.44;;;22.80;78.94
63088;BME280;49173;43.164;27.786;2023-06-22T05:26:19;100793.66;;;22.89;78.16
63088;BME280;49173;43.164;27.786;2023-06-22T05:28:45;100792.44;;;23.01;78.35
63088;BME280;49173;43.164;27.786;2023-06-22T05:31:13;100787.06;;;23.10;77.57
63088;BME280;49173;43.164;27.786;2023-06-22T05:33:40;100790.28;;;23.23;77.40
63088;BME280;49173;43.164;27.786;2023-06-22T05:36:06;100790.41;;;23.39;76.89
63088;BME280;49173;43.164;27.786;2023-06-22T05:38:32;100787.84;;;23.55;76.66
63088;BME280;49173;43.164;27.786;2023-06-22T05:40:58;100798.81;;;23.73;76.19
63088;BME280;49173;43.164;27.786;2023-06-22T05:43:24;100792.28;;;23.92;75.65
63088;BME280;49173;43.164;27.786;2023-06-22T05:45:50;100794.81;;;24.11;74.88
63088;BME280;49173;43.164;27.786;2023-06-22T05:48:16;100778.28;;;24.29;74.08
63088;BME280;49173;43.164;27.786;2023-06-22T05:50:42;100783.03;;;24.45;72.40
63088;BME280;49173;43.164;27.786;2023-06-22T05:53:08;100776.78;;;24.61;72.92
63088;BME280;49173;43.164;27.786;2023-06-22T05:55:34;100782.31;;;24.77;72.26
63088;BME280;49173;43.164;27.786;2023-06-22T05:58:00;100777.22;;;24.90;71.85
63088;BME280;49173;43.164;27.786;2023-06-22T06:00:25;100784.13;;;25.03;69.88
63088;BME280;49173;43.164;27.786;2023-06-22T06:02:51;100777.47;;;25.13;67.57
63088;BME280;49173;43.164;27.786;2023-06-22T06:05:17;100777.84;;;25.27;68.79
63088;BME280;49173;43.164;27.786;2023-06-22T06:07:45;100773.91;;;25.37;68.71
63088;BME280;49173;43.164;27.786;2023-06-22T06:10:12;100768.06;;;25.48;68.11
63088;BME280;49173;43.164;27.786;2023-06-22T06:12:38;100774.09;;;25.60;67.36
63088;BME280;49173;43.164;27.786;2023-06-22T06:15:05;100779.56;;;25.68;67.91
63088;BME280;49173;43.164;27.786;2023-06-22T06:17:31;100780.28;;;25.79;66.88
63088;BME280;49173;43.164;27.786;2023-06-22T06:20:00;100780.13;;;25.88;66.62
63088;BME280;49173;43.164;27.786;2023-06-22T06:22:26;100778.88;;;25.99;66.04
63088;BME280;49173;43.164;27.786;2023-06-22T06:24:52;100772.34;;;26.08;63.47
63088;BME280;49173;43.164;27.786;2023-06-22T06:27:19;100775.09;;;26.16;64.13
63088;BME280;49173;43.164;27.786;2023-06-22T06:29:44;100782.94;;;26.27;65.05
63088;BME280;49173;43.164;27.786;2023-06-22T06:32:20;100788.63;;;26.42;64.57
63088;BME280;49173;43.164;27.786;2023-06-22T06:34:46;100778.47;;;26.51;64.21
63088;BME280;49173;43.164;27.786;2023-06-22T06:37:11;100781.66;;;26.63;65.16
63088;BME280;49173;43.164;27.786;2023-06-22T06:39:37;100790.41;;;26.74;62.30
63088;BME280;49173;43.164;27.786;2023-06-22T06:42:04;100778.66;;;26.80;62.95
63088;BME280;49173;43.164;27.786;2023-06-22T06:44:30;100781.75;;;26.86;61.96
63088;BME280;49173;43.164;27.786;2023-06-22T06:46:56;100779.81;;;26.94;61.41
63088;BME280;49173;43.164;27.786;2023-06-22T06:49:22;100780.59;;;27.03;61.39
63088;BME280;49173;43.164;27.786;2023-06-22T06:51:48;100787.81;;;27.12;60.75
63088;BME280;49173;43.164;27.786;2023-06-22T06:54:13;100780.00;;;27.24;61.12
63088;BME280;49173;43.164;27.786;2023-06-22T06:56:39;100774.41;;;27.32;59.77
63088;BME280;49173;43.164;27.786;2023-06-22T06:59:05;100781.44;;;27.34;58.96
63088;BME280;49173;43.164;27.786;2023-06-22T07:01:31;100779.00;;;27.40;59.23
63088;BME280;49173;43.164;27.786;2023-06-22T07:03:59;100778.41;;;27.52;60.07
63088;BME280;49173;43.164;27.786;2023-06-22T07:06:26;100775.88;;;27.65;60.15
63088;BME280;49173;43.164;27.786;2023-06-22T07:08:55;100787.53;;;27.76;57.97
63088;BME280;49173;43.164;27.786;2023-06-22T07:11:22;100793.34;;;27.81;57.85
63088;BME280;49173;43.164;27.786;2023-06-22T07:13:48;100787.75;;;27.89;58.16
63088;BME280;49173;43.164;27.786;2023-06-22T07:16:14;100789.88;;;28.02;58.55
63088;BME280;49173;43.164;27.786;2023-06-22T07:18:40;100788.94;;;28.09;57.85
63088;BME280;49173;43.164;27.786;2023-06-22T07:21:05;100789.72;;;28.18;56.90
63088;BME280;49173;43.164;27.786;2023-06-22T07:23:33;100784.28;;;28.25;56.11
63088;BME280;49173;43.164;27.786;2023-06-22T07:25:59;100784.22;;;28.33;55.21
63088;BME280;49173;43.164;27.786;2023-06-22T07:28:28;100773.13;;;28.41;55.66
63088;BME280;49173;43.164;27.786;2023-06-22T07:30:57;100780.25;;;28.50;55.04
63088;BME280;49173;43.164;27.786;2023-06-22T07:33:23;100779.50;;;28.56;53.96
63088;BME280;49173;43.164;27.786;2023-06-22T07:35:49;100781.84;;;28.59;54.10
63088;BME280;49173;43.164;27.786;2023-06-22T07:38:16;100771.75;;;28.66;52.63
63088;BME280;49173;43.164;27.786;2023-06-22T07:40:42;100783.94;;;28.72;52.01
63088;BME280;49173;43.164;27.786;2023-06-22T07:43:10;100775.34;;;28.82;51.58
63088;BME280;49173;43.164;27.786;2023-06-22T07:45:37;100776.13;;;28.90;52.65
63088;BME280;49173;43.164;27.786;2023-06-22T07:48:04;100790.50;;;29.00;52.44
63088;BME280;49173;43.164;27.786;2023-06-22T07:50:30;100780.19;;;29.09;50.00
63088;BME280;49173;43.164;27.786;2023-06-22T07:52:56;100785.56;;;29.17;50.37
63088;BME280;49173;43.164;27.786;2023-06-22T07:55:23;100772.03;;;29.22;48.43
63088;BME280;49173;43.164;27.786;2023-06-22T07:57:49;100774.66;;;29.31;48.89
63088;BME280;49173;43.164;27.786;2023-06-22T08:00:18;100775.59;;;29.38;47.24
63088;BME280;49173;43.164;27.786;2023-06-22T08:02:45;100774.38;;;29.40;45.32
63088;BME280;49173;43.164;27.786;2023-06-22T08:05:13;100783.09;;;29.44;45.65
63088;BME280;49173;43.164;27.786;2023-06-22T08:07:38;100777.84;;;29.49;46.06
63088;BME280;49173;43.164;27.786;2023-06-22T08:10:05;100780.50;;;29.57;47.06
63088;BME280;49173;43.164;27.786;2023-06-22T08:12:32;100778.38;;;29.59;44.56
63088;BME280;49173;43.164;27.786;2023-06-22T08:14:58;100778.44;;;29.66;46.37
63088;BME280;49173;43.164;27.786;2023-06-22T08:17:24;100775.75;;;29.72;46.64
63088;BME280;49173;43.164;27.786;2023-06-22T08:19:50;100776.00;;;29.77;45.97
63088;BME280;49173;43.164;27.786;2023-06-22T08:22:17;100764.34;;;29.82;45.59
63088;BME280;49173;43.164;27.786;2023-06-22T08:24:43;100767.19;;;29.89;44.47
63088;BME280;49173;43.164;27.786;2023-06-22T08:27:10;100759.31;;;29.92;43.95
63088;BME280;49173;43.164;27.786;2023-06-22T08:29:39;100766.34;;;29.95;42.70
63088;BME280;49173;43.164;27.786;2023-06-22T08:32:05;100766.13;;;29.90;41.98
63088;BME280;49173;43.164;27.786;2023-06-22T08:34:32;100753.97;;;29.91;43.09
63088;BME280;49173;43.164;27.786;2023-06-22T08:36:58;100760.81;;;29.95;41.90
63088;BME280;49173;43.164;27.786;2023-06-22T08:39:24;100764.25;;;29.97;41.70
63088;BME280;49173;43.164;27.786;2023-06-22T08:41:52;100765.44;;;29.88;42.69
63088;BME280;49173;43.164;27.786;2023-06-22T08:44:19;100761.81;;;29.87;42.70
63088;BME280;49173;43.164;27.786;2023-06-22T08:46:45;100761.88;;;29.94;43.05
63088;BME280;49173;43.164;27.786;2023-06-22T08:49:11;100761.72;;;30.02;42.00
63088;BME280;49173;43.164;27.786;2023-06-22T08:51:37;100767.25;;;30.02;42.14
63088;BME280;49173;43.164;27.786;2023-06-22T08:54:03;100767.03;;;29.97;40.74
63088;BME280;49173;43.164;27.786;2023-06-22T08:56:29;100765.16;;;30.04;41.67
63088;BME280;49173;43.164;27.786;2023-06-22T08:58:55;100759.75;;;30.17;43.03
63088;BME280;49173;43.164;27.786;2023-06-22T09:01:22;100762.19;;;30.33;43.79
63088;BME280;49173;43.164;27.786;2023-06-22T09:03:48;100765.88;;;30.47;42.60
63088;BME280;49173;43.164;27.786;2023-06-22T09:06:20;100761.84;;;30.50;41.04
63088;BME280;49173;43.164;27.786;2023-06-22T09:08:47;100756.53;;;30.48;41.08
63088;BME280;49173;43.164;27.786;2023-06-22T09:11:13;100754.22;;;30.52;41.15
63088;BME280;49173;43.164;27.786;2023-06-22T09:13:39;100743.59;;;30.62;43.39
63088;BME280;49173;43.164;27.786;2023-06-22T09:16:05;100746.44;;;30.75;44.15
63088;BME280;49173;43.164;27.786;2023-06-22T09:18:33;100752.44;;;30.85;42.22
63088;BME280;49173;43.164;27.786;2023-06-22T09:20:59;100758.69;;;30.94;41.67
63088;BME280;49173;43.164;27.786;2023-06-22T09:23:25;100752.06;;;30.95;40.83
63088;BME280;49173;43.164;27.786;2023-06-22T09:25:51;100753.50;;;30.84;44.24
63088;BME280;49173;43.164;27.786;2023-06-22T09:28:18;100745.81;;;30.80;44.95
63088;BME280;49173;43.164;27.786;2023-06-22T09:30:45;100748.56;;;30.67;44.27
63088;BME280;49173;43.164;27.786;2023-06-22T09:33:11;100747.72;;;30.79;44.47
63088;BME280;49173;43.164;27.786;2023-06-22T09:35:37;100750.13;;;30.89;45.38
63088;BME280;49173;43.164;27.786;2023-06-22T09:38:04;100752.50;;;30.99;43.51
63088;BME280;49173;43.164;27.786;2023-06-22T09:40:32;100753.13;;;30.94;43.95
63088;BME280;49173;43.164;27.786;2023-06-22T09:43:01;100750.56;;;30.93;43.08
63088;BME280;49173;43.164;27.786;2023-06-22T09:45:27;100750.56;;;30.93;43.09
63088;BME280;49173;43.164;27.786;2023-06-22T09:47:56;100752.13;;;31.08;44.67
63088;BME280;49173;43.164;27.786;2023-06-22T09:50:22;100754.75;;;31.23;42.54
63088;BME280;49173;43.164;27.786;2023-06-22T09:52:48;100747.44;;;31.22;42.95
63088;BME280;49173;43.164;27.786;2023-06-22T09:55:16;100749.53;;;31.07;44.45
63088;BME280;49173;43.164;27.786;2023-06-22T09:57:42;100758.66;;;30.87;42.23
63088;BME280;49173;43.164;27.786;2023-06-22T10:00:08;100765.97;;;30.60;43.28
63088;BME280;49173;43.164;27.786;2023-06-22T10:02:35;100759.75;;;30.58;43.45
63088;BME280;49173;43.164;27.786;2023-06-22T10:05:02;100773.81;;;30.57;44.07
63088;BME280;49173;43.164;27.786;2023-06-22T10:07:29;100768.91;;;30.52;44.18
63088;BME280;49173;43.164;27.786;2023-06-22T10:09:55;100767.22;;;30.58;46.33
63088;BME280;49173;43.164;27.786;2023-06-22T10:12:20;100760.09;;;30.77;46.47
63088;BME280;49173;43.164;27.786;2023-06-22T10:14:47;100768.72;;;30.95;45.22
63088;BME280;49173;43.164;27.786;2023-06-22T10:17:13;100768.91;;;31.00;46.05
63088;BME280;49173;43.164;27.786;2023-06-22T10:19:39;100762.53;;;31.06;45.47
63088;BME280;49173;43.164;27.786;2023-06-22T10:22:07;100765.13;;;31.14;44.40
63088;BME280;49173;43.164;27.786;2023-06-22T10:24:36;100757.66;;;31.22;44.16
63088;BME280;49173;43.164;27.786;2023-06-22T10:27:04;100770.53;;;31.29;43.76
63088;BME280;49173;43.164;27.786;2023-06-22T10:29:30;100765.84;;;31.30;43.85
63088;BME280;49173;43.164;27.786;2023-06-22T10:31:57;100764.50;;;31.19;43.69
63088;BME280;49173;43.164;27.786;2023-06-22T10:34:23;100757.75;;;31.41;44.04
63088;BME280;49173;43.164;27.786;2023-06-22T10:36:50;100760.31;;;31.56;42.40
63088;BME280;49173;43.164;27.786;2023-06-22T10:39:16;100756.69;;;31.56;43.10
63088;BME280;49173;43.164;27.786;2023-06-22T10:41:42;100757.78;;;31.68;43.30
63088;BME280;49173;43.164;27.786;2023-06-22T10:44:07;100748.38;;;31.69;43.20
63088;BME280;49173;43.164;27.786;2023-06-22T10:46:33;100751.81;;;31.58;43.50
63088;BME280;49173;43.164;27.786;2023-06-22T10:49:00;100753.03;;;31.35;44.21
63088;BME280;49173;43.164;27.786;2023-06-22T10:51:26;100738.94;;;31.24;43.80
63088;BME280;49173;43.164;27.786;2023-06-22T10:53:54;100736.81;;;31.32;45.09
63088;BME280;49173;43.164;27.786;2023-06-22T10:56:20;100735.78;;;31.47;44.20
63088;BME280;49173;43.164;27.786;2023-06-22T10:58:46;100741.75;;;31.30;43.94
63088;BME280;49173;43.164;27.786;2023-06-22T11:01:12;100733.84;;;31.40;43.58
63088;BME280;49173;43.164;27.786;2023-06-22T11:03:39;100742.81;;;31.56;42.60
63088;BME280;49173;43.164;27.786;2023-06-22T11:06:06;100734.94;;;31.66;42.11
63088;BME280;49173;43.164;27.786;2023-06-22T11:08:34;100733.25;;;31.78;41.71
63088;BME280;49173;43.164;27.786;2023-06-22T11:11:00;100731.94;;;31.74;42.41
63088;BME280;49173;43.164;27.786;2023-06-22T11:13:26;100735.16;;;31.78;44.00
63088;BME280;49173;43.164;27.786;2023-06-22T11:15:55;100730.47;;;31.85;43.91
63088;BME280;49173;43.164;27.786;2023-06-22T11:18:21;100737.31;;;31.82;43.32
63088;BME280;49173;43.164;27.786;2023-06-22T11:20:51;100733.44;;;31.77;42.88
63088;BME280;49173;43.164;27.786;2023-06-22T11:23:18;100738.56;;;31.73;43.39
63088;BME280;49173;43.164;27.786;2023-06-22T11:25:44;100728.72;;;31.77;44.20
63088;BME280;49173;43.164;27.786;2023-06-22T11:28:12;100735.81;;;31.80;44.18
63088;BME280;49173;43.164;27.786;2023-06-22T11:30:42;100727.03;;;31.76;44.21
63088;BME280;49173;43.164;27.786;2023-06-22T11:33:15;100741.16;;;31.81;43.40
63088;BME280;49173;43.164;27.786;2023-06-22T11:35:42;100732.56;;;31.63;44.04
63088;BME280;49173;43.164;27.786;2023-06-22T11:38:08;100731.94;;;31.48;45.00
63088;BME280;49173;43.164;27.786;2023-06-22T11:40:34;100730.00;;;31.55;45.31
63088;BME280;49173;43.164;27.786;2023-06-22T11:43:00;100740.28;;;31.67;43.89
63088;BME280;49173;43.164;27.786;2023-06-22T11:45:26;100730.25;;;31.60;44.25
63088;BME280;49173;43.164;27.786;2023-06-22T11:47:52;100731.50;;;31.70;43.44
63088;BME280;49173;43.164;27.786;2023-06-22T11:50:18;100727.69;;;31.85;44.23
63088;BME280;49173;43.164;27.786;2023-06-22T11:52:44;100734.94;;;31.99;44.59
63088;BME280;49173;43.164;27.786;2023-06-22T11:55:11;100741.78;;;32.03;43.46
63088;BME280;49173;43.164;27.786;2023-06-22T11:57:37;100737.06;;;32.17;43.70
63088;BME280;49173;43.164;27.786;2023-06-22T12:00:04;100735.56;;;32.21;43.95
63088;BME280;49173;43.164;27.786;2023-06-22T12:02:46;100730.84;;;32.21;44.38
63088;BME280;49173;43.164;27.786;2023-06-22T12:05:13;100729.78;;;32.16;43.76
63088;BME280;49173;43.164;27.786;2023-06-22T12:07:40;100719.78;;;32.08;44.04
63088;BME280;49173;43.164;27.786;2023-06-22T12:10:06;100734.94;;;31.92;43.88
63088;BME280;49173;43.164;27.786;2023-06-22T12:12:38;100728.34;;;31.80;44.37
63088;BME280;49173;43.164;27.786;2023-06-22T12:15:12;100719.78;;;31.68;44.29
63088;BME280;49173;43.164;27.786;2023-06-22T12:17:44;100734.97;;;31.86;44.33
63088;BME280;49173;43.164;27.786;2023-06-22T12:20:13;100722.34;;;31.96;43.99
63088;BME280;49173;43.164;27.786;2023-06-22T12:22:48;100727.25;;;32.08;43.45
63088;BME280;49173;43.164;27.786;2023-06-22T12:25:26;100730.88;;;32.02;44.52
63088;BME280;49173;43.164;27.786;2023-06-22T12:27:55;100733.88;;;32.00;43.93
63088;BME280;49173;43.164;27.786;2023-06-22T12:30:32;100733.03;;;31.86;44.64
63088;BME280;49173;43.164;27.786;2023-06-22T12:33:01;100728.72;;;31.77;44.80
63088;BME280;49173;43.164;27.786;2023-06-22T12:35:30;100737.28;;;31.69;45.11
63088;BME280;49173;43.164;27.786;2023-06-22T12:37:59;100731.72;;;31.76;45.05
63088;BME280;49173;43.164;27.786;2023-06-22T12:40:38;100725.56;;;31.80;44.12
63088;BME280;49173;43.164;27.786;2023-06-22T12:43:23;100729.81;;;31.96;44.04
63088;BME280;49173;43.164;27.786;2023-06-22T12:45:55;100725.34;;;32.02;42.92
63088;BME280;49173;43.164;27.786;2023-06-22T12:48:25;100724.03;;;31.97;42.54
63088;BME280;49173;43.164;27.786;2023-06-22T12:51:10;100718.94;;;31.94;43.66